createdAt,value
2023-01-22T00:00:31.947Z,5.70
2023-01-22T00:01:31.923Z,6.00
2023-01-22T00:02:32.124Z,5.80
2023-01-22T00:03:31.933Z,8.10
2023-01-22T00:04:31.884Z,13.00
2023-01-22T00:05:31.930Z,7.90
2023-01-22T00:06:31.853Z,7.50
2023-01-22T00:07:31.905Z,7.40
2023-01-22T00:08:31.916Z,8.20
2023-01-22T00:09:31.856Z,9.00
2023-01-22T00:10:31.841Z,6.80
2023-01-22T00:11:31.822Z,7.60
2023-01-22T00:12:31.817Z,10.00
2023-01-22T00:13:31.815Z,8.00
2023-01-22T00:14:31.820Z,6.90
2023-01-22T00:15:31.865Z,7.50
2023-01-22T00:16:31.760Z,8.20
2023-01-22T00:17:31.742Z,8.50
2023-01-22T00:18:31.751Z,7.30
2023-01-22T00:19:31.715Z,7.90
2023-01-22T00:20:31.733Z,6.70
2023-01-22T00:21:31.717Z,5.60
2023-01-22T00:22:31.711Z,9.10
2023-01-22T00:23:31.731Z,7.70
2023-01-22T00:24:31.674Z,6.60
2023-01-22T00:25:31.688Z,9.90
2023-01-22T00:26:31.658Z,7.50
2023-01-22T00:27:31.649Z,8.10
2023-01-22T00:28:31.655Z,8.30
2023-01-22T00:29:31.604Z,9.90
2023-01-22T00:30:31.607Z,7.40
2023-01-22T00:31:31.676Z,6.90
2023-01-22T00:32:31.603Z,11.20
2023-01-22T00:33:31.612Z,8.00
2023-01-22T00:34:31.595Z,8.40
2023-01-22T00:35:31.580Z,10.30
2023-01-22T00:36:31.533Z,9.80
2023-01-22T00:37:31.514Z,8.90
2023-01-22T00:38:31.526Z,8.60
2023-01-22T00:39:31.528Z,4.90
2023-01-22T00:40:31.502Z,8.00
2023-01-22T00:41:31.481Z,7.60
2023-01-22T00:42:31.467Z,5.80
2023-01-22T00:43:31.458Z,5.70
2023-01-22T00:44:31.480Z,6.80
2023-01-22T00:45:31.438Z,6.80
2023-01-22T00:46:31.497Z,6.10
2023-01-22T00:47:31.439Z,11.00
2023-01-22T00:48:31.412Z,6.00
2023-01-22T00:49:31.430Z,6.60
2023-01-22T00:50:31.425Z,6.70
2023-01-22T00:51:31.394Z,6.30
2023-01-22T00:52:31.383Z,5.30
2023-01-22T00:53:31.380Z,5.90
2023-01-22T00:54:31.337Z,5.60
2023-01-22T00:55:31.344Z,7.10
2023-01-22T00:56:31.328Z,5.70
2023-01-22T00:57:31.340Z,6.80
2023-01-22T00:58:31.315Z,6.80
2023-01-22T00:59:31.283Z,8.20
2023-01-22T01:00:31.339Z,7.20
2023-01-22T01:01:31.268Z,6.80
2023-01-22T01:02:31.310Z,8.20
2023-01-22T01:03:31.252Z,8.60
2023-01-22T01:04:31.253Z,6.00
2023-01-22T01:05:31.263Z,7.00
2023-01-22T01:06:31.259Z,7.30
2023-01-22T01:07:31.242Z,8.00
2023-01-22T01:08:31.210Z,5.80
2023-01-22T01:09:31.186Z,6.60
2023-01-22T01:10:31.236Z,6.50
2023-01-22T01:11:31.165Z,6.40
2023-01-22T01:12:31.266Z,7.00
2023-01-22T01:13:31.150Z,8.10
2023-01-22T01:14:31.130Z,7.00
2023-01-22T01:15:31.154Z,7.70
2023-01-22T01:16:31.179Z,6.50
2023-01-22T01:17:31.101Z,8.20
2023-01-22T01:18:31.106Z,7.90
2023-01-22T01:19:31.098Z,8.30
2023-01-22T01:20:31.091Z,6.40
2023-01-22T01:21:31.077Z,5.90
2023-01-22T01:22:31.060Z,6.30
2023-01-22T01:23:31.046Z,8.70
2023-01-22T01:24:31.047Z,7.50
2023-01-22T01:25:31.041Z,4.90
2023-01-22T01:26:31.028Z,5.50
2023-01-22T01:27:31.008Z,7.00
2023-01-22T01:28:31.099Z,7.50
2023-01-22T01:29:31.003Z,7.10
2023-01-22T01:30:31.012Z,6.60
2023-01-22T01:31:31.036Z,6.30
2023-01-22T01:32:30.958Z,7.00
2023-01-22T01:33:30.955Z,7.60
2023-01-22T01:34:30.929Z,13.80
2023-01-22T01:35:30.914Z,6.40
2023-01-22T01:36:47.565Z,9.80
2023-01-22T01:37:31.910Z,5.90
2023-01-22T01:38:30.899Z,6.40
2023-01-22T01:39:30.880Z,10.80
2023-01-22T01:40:30.876Z,7.30
2023-01-22T01:41:30.848Z,8.90
2023-01-22T01:42:30.865Z,7.30
2023-01-22T01:43:30.827Z,7.40
2023-01-22T01:44:30.930Z,7.00
2023-01-22T01:45:30.860Z,7.80
2023-01-22T01:46:30.867Z,6.90
2023-01-22T01:47:30.803Z,6.80
2023-01-22T01:48:30.775Z,8.90
2023-01-22T01:49:30.767Z,7.70
2023-01-22T01:50:30.779Z,9.00
2023-01-22T01:51:30.745Z,7.50
2023-01-22T01:52:30.779Z,5.80
2023-01-22T01:53:30.727Z,6.00
2023-01-22T01:54:30.714Z,6.50
2023-01-22T01:55:30.714Z,6.80
2023-01-22T01:56:30.687Z,6.10
2023-01-22T01:57:30.676Z,5.50
2023-01-22T01:58:30.679Z,6.80
2023-01-22T01:59:30.653Z,5.60
2023-01-22T02:00:30.784Z,6.90
2023-01-22T02:01:30.659Z,6.40
2023-01-22T02:02:30.625Z,6.10
2023-01-22T02:03:30.637Z,6.30
2023-01-22T02:04:30.630Z,7.70
2023-01-22T02:05:30.618Z,8.10
2023-01-22T02:06:30.585Z,6.90
2023-01-22T02:07:30.603Z,6.20
2023-01-22T02:08:30.571Z,6.00
2023-01-22T02:09:30.560Z,7.40
2023-01-22T02:10:30.552Z,6.00
2023-01-22T02:11:30.571Z,7.20
2023-01-22T02:12:30.553Z,6.00
2023-01-22T02:13:30.520Z,6.40
2023-01-22T02:14:30.508Z,5.90
2023-01-22T02:15:30.512Z,5.70
2023-01-22T02:16:36.021Z,9.30
2023-01-22T02:17:31.581Z,6.10
2023-01-22T02:18:30.456Z,5.40
2023-01-22T02:19:30.454Z,4.70
2023-01-22T02:20:30.497Z,7.10
2023-01-22T02:21:30.450Z,6.00
2023-01-22T02:22:30.471Z,5.90
2023-01-22T02:23:30.408Z,7.50
2023-01-22T02:24:30.421Z,4.70
2023-01-22T02:25:30.411Z,6.20
2023-01-22T02:26:30.434Z,7.20
2023-01-22T02:27:30.356Z,6.30
2023-01-22T02:28:30.351Z,5.90
2023-01-22T02:29:30.351Z,5.90
2023-01-22T02:30:30.417Z,4.90
2023-01-22T02:31:30.379Z,7.10
2023-01-22T02:32:30.316Z,7.50
2023-01-22T02:33:30.422Z,6.30
2023-01-22T02:34:30.301Z,4.80
2023-01-22T02:35:30.298Z,7.20
2023-01-22T02:36:30.271Z,6.40
2023-01-22T02:37:30.267Z,5.10
2023-01-22T02:38:30.251Z,5.80
2023-01-22T02:39:30.241Z,5.10
2023-01-22T02:40:30.261Z,5.40
2023-01-22T02:41:30.224Z,5.70
2023-01-22T02:42:30.212Z,6.60
2023-01-22T02:43:30.195Z,5.80
2023-01-22T02:44:30.192Z,6.60
2023-01-22T02:45:30.236Z,6.60
2023-01-22T02:46:30.173Z,5.00
2023-01-22T02:47:30.162Z,5.10
2023-01-22T02:48:30.137Z,4.30
2023-01-22T02:49:30.236Z,6.10
2023-01-22T02:50:30.151Z,5.60
2023-01-22T02:51:30.128Z,4.90
2023-01-22T02:52:30.134Z,6.30
2023-01-22T02:53:30.088Z,5.90
2023-01-22T02:54:30.101Z,5.40
2023-01-22T02:55:30.071Z,5.90
2023-01-22T02:56:30.101Z,5.50
2023-01-22T02:57:30.046Z,6.50
2023-01-22T02:58:30.061Z,5.80
2023-01-22T02:59:30.051Z,5.70
2023-01-22T03:00:30.031Z,6.30
2023-01-22T03:01:30.030Z,7.60
2023-01-22T03:02:30.040Z,6.80
2023-01-22T03:03:29.979Z,6.20
2023-01-22T03:04:29.988Z,6.70
2023-01-22T03:05:30.148Z,6.70
2023-01-22T03:06:30.063Z,4.90
2023-01-22T03:07:29.944Z,5.20
2023-01-22T03:08:29.941Z,8.10
2023-01-22T03:09:30.005Z,7.10
2023-01-22T03:10:29.920Z,6.30
2023-01-22T03:11:29.935Z,4.80
2023-01-22T03:12:29.886Z,5.60
2023-01-22T03:13:29.873Z,4.40
2023-01-22T03:14:29.879Z,7.40
2023-01-22T03:15:29.880Z,4.50
2023-01-22T03:16:29.934Z,10.20
2023-01-22T03:17:29.861Z,5.60
2023-01-22T03:18:29.859Z,5.70
2023-01-22T03:19:29.813Z,6.20
2023-01-22T03:20:29.818Z,7.50
2023-01-22T03:21:29.917Z,5.20
2023-01-22T03:22:29.815Z,5.00
2023-01-22T03:23:29.772Z,5.60
2023-01-22T03:24:29.835Z,6.00
2023-01-22T03:25:29.749Z,7.30
2023-01-22T03:26:29.752Z,6.20
2023-01-22T03:27:29.757Z,6.60
2023-01-22T03:28:29.724Z,6.00
2023-01-22T03:29:29.715Z,6.40
2023-01-22T03:30:29.699Z,5.50
2023-01-22T03:31:29.814Z,5.80
2023-01-22T03:32:29.687Z,6.00
2023-01-22T03:33:29.673Z,7.80
2023-01-22T03:34:29.672Z,6.10
2023-01-22T03:35:29.640Z,6.80
2023-01-22T03:36:29.675Z,6.80
2023-01-22T03:37:29.741Z,7.70
2023-01-22T03:38:29.622Z,8.50
2023-01-22T03:39:29.605Z,7.40
2023-01-22T03:40:29.610Z,7.50
2023-01-22T03:41:29.648Z,8.20
2023-01-22T03:42:29.705Z,9.30
2023-01-22T03:43:29.552Z,8.70
2023-01-22T03:44:29.582Z,9.60
2023-01-22T03:45:29.540Z,8.80
2023-01-22T03:46:29.576Z,7.70
2023-01-22T03:47:29.520Z,8.20
2023-01-22T03:48:29.515Z,10.00
2023-01-22T03:49:29.510Z,12.00
2023-01-22T03:50:29.480Z,7.10
2023-01-22T03:51:29.497Z,9.60
2023-01-22T03:52:29.476Z,8.10
2023-01-22T03:53:29.565Z,7.40
2023-01-22T03:54:29.451Z,11.40
2023-01-22T03:55:29.468Z,7.30
2023-01-22T03:56:29.463Z,9.80
2023-01-22T03:57:29.421Z,7.30
2023-01-22T03:58:29.403Z,10.20
2023-01-22T03:59:29.427Z,10.20
2023-01-22T04:00:29.384Z,8.30
2023-01-22T04:01:29.421Z,10.20
2023-01-22T04:02:29.409Z,12.20
2023-01-22T04:03:29.355Z,8.80
2023-01-22T04:04:29.348Z,8.40
2023-01-22T04:05:29.341Z,8.20
2023-01-22T04:06:29.375Z,8.20
2023-01-22T04:07:29.321Z,10.20
2023-01-22T04:08:29.323Z,9.60
2023-01-22T04:09:29.415Z,8.90
2023-01-22T04:10:29.299Z,11.60
2023-01-22T04:11:29.279Z,9.80
2023-01-22T04:12:29.260Z,9.20
2023-01-22T04:13:29.270Z,8.50
2023-01-22T04:14:29.263Z,8.90
2023-01-22T04:15:29.229Z,10.00
2023-01-22T04:16:29.300Z,9.40
2023-01-22T04:17:29.195Z,9.10
2023-01-22T04:18:29.195Z,10.60
2023-01-22T04:19:29.190Z,9.10
2023-01-22T04:20:29.191Z,9.00
2023-01-22T04:21:29.282Z,9.40
2023-01-22T04:22:29.149Z,10.00
2023-01-22T04:23:29.164Z,11.10
2023-01-22T04:24:29.133Z,9.20
2023-01-22T04:25:29.229Z,11.70
2023-01-22T04:26:29.126Z,8.80
2023-01-22T04:27:29.120Z,8.70
2023-01-22T04:28:29.084Z,9.40
2023-01-22T04:29:29.076Z,10.20
2023-01-22T04:30:29.161Z,10.30
2023-01-22T04:31:29.287Z,9.80
2023-01-22T04:32:29.046Z,13.20
2023-01-22T04:33:29.092Z,9.00
2023-01-22T04:34:29.050Z,7.80
2023-01-22T04:35:29.036Z,9.80
2023-01-22T04:36:29.202Z,9.40
2023-01-22T04:37:29.002Z,9.10
2023-01-22T04:38:29.014Z,9.00
2023-01-22T04:39:28.969Z,9.00
2023-01-22T04:40:28.965Z,8.50
2023-01-22T04:41:29.087Z,11.40
2023-01-22T04:42:28.965Z,9.20
2023-01-22T04:43:28.939Z,9.50
2023-01-22T04:44:28.930Z,7.70
2023-01-22T04:45:28.916Z,9.90
2023-01-22T04:46:28.968Z,10.20
2023-01-22T04:47:28.888Z,10.00
2023-01-22T04:48:28.900Z,12.10
2023-01-22T04:49:28.885Z,8.80
2023-01-22T04:50:28.854Z,8.00
2023-01-22T04:51:28.985Z,9.10
2023-01-22T04:52:28.856Z,8.50
2023-01-22T04:53:28.830Z,9.70
2023-01-22T04:54:28.811Z,8.00
2023-01-22T04:55:28.818Z,8.90
2023-01-22T04:56:28.826Z,12.20
2023-01-22T04:57:28.911Z,11.50
2023-01-22T04:58:28.794Z,10.20
2023-01-22T04:59:28.776Z,9.90
2023-01-22T05:00:28.760Z,9.10
2023-01-22T05:01:28.801Z,9.80
2023-01-22T05:02:28.870Z,9.30
2023-01-22T05:03:28.717Z,9.90
2023-01-22T05:04:28.756Z,9.70
2023-01-22T05:05:28.728Z,9.50
2023-01-22T05:06:28.699Z,10.80
2023-01-22T05:07:28.690Z,11.20
2023-01-22T05:08:28.704Z,9.70
2023-01-22T05:09:28.647Z,9.40
2023-01-22T05:10:28.648Z,9.30
2023-01-22T05:11:28.678Z,10.90
2023-01-22T05:12:28.659Z,7.60
2023-01-22T05:13:28.767Z,8.90
2023-01-22T05:14:28.620Z,8.50
2023-01-22T05:15:28.609Z,8.20
2023-01-22T05:16:28.608Z,10.00
2023-01-22T05:17:28.568Z,10.30
2023-01-22T05:18:28.600Z,7.80
2023-01-22T05:19:28.588Z,10.60
2023-01-22T05:20:28.566Z,11.10
2023-01-22T05:21:28.567Z,10.00
2023-01-22T05:22:28.525Z,8.40
2023-01-22T05:23:28.530Z,9.20
2023-01-22T05:24:28.507Z,9.30
2023-01-22T05:25:28.509Z,9.70
2023-01-22T05:26:28.497Z,13.10
2023-01-22T05:27:28.498Z,9.10
2023-01-22T05:28:28.453Z,8.20
2023-01-22T05:29:28.622Z,8.10
2023-01-22T05:30:28.472Z,8.90
2023-01-22T05:31:28.544Z,11.00
2023-01-22T05:32:28.422Z,10.80
2023-01-22T05:33:28.411Z,7.40
2023-01-22T05:34:28.414Z,7.40
2023-01-22T05:35:28.394Z,8.20
2023-01-22T05:36:28.429Z,9.40
2023-01-22T05:37:28.371Z,9.70
2023-01-22T05:38:28.347Z,8.80
2023-01-22T05:39:28.341Z,9.20
2023-01-22T05:40:28.328Z,7.70
2023-01-22T05:41:28.346Z,8.30
2023-01-22T05:42:28.325Z,9.80
2023-01-22T05:43:28.307Z,9.90
2023-01-22T05:44:28.307Z,8.80
2023-01-22T05:45:28.386Z,11.50
2023-01-22T05:46:28.319Z,7.90
2023-01-22T05:47:28.279Z,7.70
2023-01-22T05:48:28.270Z,9.30
2023-01-22T05:49:28.236Z,9.60
2023-01-22T05:50:28.232Z,9.10
2023-01-22T05:51:29.004Z,8.90
2023-01-22T05:52:28.203Z,10.80
2023-01-22T05:53:28.226Z,6.90
2023-01-22T05:54:28.185Z,7.40
2023-01-22T05:55:28.172Z,8.20
2023-01-22T05:56:28.195Z,7.70
2023-01-22T05:57:28.173Z,8.30
2023-01-22T05:58:28.160Z,6.90
2023-01-22T05:59:28.144Z,8.30
2023-01-22T06:00:28.206Z,9.80
2023-01-22T06:01:28.248Z,7.50
2023-01-22T06:02:28.177Z,9.20
2023-01-22T06:03:28.123Z,7.50
2023-01-22T06:04:28.104Z,11.20
2023-01-22T06:05:28.129Z,7.10
2023-01-22T06:06:28.059Z,6.90
2023-01-22T06:07:28.080Z,8.20
2023-01-22T06:08:28.043Z,8.30
2023-01-22T06:09:28.058Z,9.50
2023-01-22T06:10:28.042Z,7.30
2023-01-22T06:11:28.004Z,8.00
2023-01-22T06:12:28.023Z,9.40
2023-01-22T06:13:28.009Z,9.60
2023-01-22T06:14:27.997Z,8.90
2023-01-22T06:15:27.982Z,9.60
2023-01-22T06:16:27.981Z,11.30
2023-01-22T06:17:28.063Z,9.90
2023-01-22T06:18:27.938Z,8.60
2023-01-22T06:19:27.940Z,8.00
2023-01-22T06:20:27.914Z,9.00
2023-01-22T06:21:27.956Z,7.80
2023-01-22T06:22:27.935Z,8.40
2023-01-22T06:23:27.902Z,9.70
2023-01-22T06:24:27.873Z,10.80
2023-01-22T06:25:27.881Z,7.20
2023-01-22T06:26:27.870Z,10.40
2023-01-22T06:27:27.847Z,9.70
2023-01-22T06:28:27.868Z,12.40
2023-01-22T06:29:27.814Z,8.90
2023-01-22T06:30:27.823Z,8.70
2023-01-22T06:31:27.917Z,8.20
2023-01-22T06:32:27.815Z,8.90
2023-01-22T06:33:27.894Z,7.70
2023-01-22T06:34:27.801Z,9.10
2023-01-22T06:35:27.804Z,10.10
2023-01-22T06:36:27.806Z,8.40
2023-01-22T06:37:27.732Z,8.20
2023-01-22T06:38:27.719Z,10.60
2023-01-22T06:39:27.731Z,9.00
2023-01-22T06:40:27.701Z,8.30
2023-01-22T06:41:27.740Z,9.30
2023-01-22T06:42:27.695Z,8.60
2023-01-22T06:43:27.669Z,9.70
2023-01-22T06:44:27.684Z,7.80
2023-01-22T06:45:27.667Z,9.60
2023-01-22T06:46:27.674Z,8.60
2023-01-22T06:47:27.641Z,11.00
2023-01-22T06:48:27.624Z,8.50
2023-01-22T06:49:27.736Z,7.70
2023-01-22T06:50:27.600Z,6.80
2023-01-22T06:51:27.662Z,8.80
2023-01-22T06:52:27.585Z,9.40
2023-01-22T06:53:27.592Z,8.50
2023-01-22T06:54:27.581Z,6.90
2023-01-22T06:55:27.561Z,8.30
2023-01-22T06:56:27.607Z,7.50
2023-01-22T06:57:27.537Z,8.00
2023-01-22T06:58:27.516Z,7.50
2023-01-22T06:59:27.517Z,7.90
2023-01-22T07:00:27.540Z,7.60
2023-01-22T07:01:27.538Z,8.30
2023-01-22T07:02:27.471Z,7.80
2023-01-22T07:03:27.514Z,8.50
2023-01-22T07:04:27.520Z,7.00
2023-01-22T07:05:27.556Z,10.80
2023-01-22T07:06:27.464Z,12.70
2023-01-22T07:07:27.504Z,11.30
2023-01-22T07:08:27.434Z,10.70
2023-01-22T07:09:27.467Z,10.20
2023-01-22T07:10:27.386Z,13.10
2023-01-22T07:11:27.411Z,13.30
2023-01-22T07:12:27.402Z,8.40
2023-01-22T07:13:27.365Z,10.30
2023-01-22T07:14:36.567Z,10.50
2023-01-22T07:15:28.362Z,9.70
2023-01-22T07:16:27.498Z,8.10
2023-01-22T07:17:27.386Z,8.00
2023-01-22T07:18:27.301Z,9.50
2023-01-22T07:19:27.307Z,10.10
2023-01-22T07:20:27.346Z,10.50
2023-01-22T07:21:27.419Z,14.30
2023-01-22T07:22:27.283Z,11.10
2023-01-22T07:23:27.276Z,8.80
2023-01-22T07:24:27.276Z,10.60
2023-01-22T07:25:27.229Z,9.50
2023-01-22T07:26:27.231Z,10.10
2023-01-22T07:27:27.229Z,11.70
2023-01-22T07:28:27.193Z,8.90
2023-01-22T07:29:27.184Z,9.10
2023-01-22T07:30:27.250Z,9.60
2023-01-22T07:31:27.249Z,9.40
2023-01-22T07:32:27.189Z,8.40
2023-01-22T07:33:27.221Z,9.50
2023-01-22T07:34:27.132Z,9.80
2023-01-22T07:35:27.144Z,11.20
2023-01-22T07:36:27.115Z,14.90
2023-01-22T07:37:27.235Z,15.90
2023-01-22T07:38:27.144Z,12.70
2023-01-22T07:39:27.118Z,10.90
2023-01-22T07:40:27.082Z,10.90
2023-01-22T07:41:27.083Z,9.80
2023-01-22T07:42:27.088Z,13.40
2023-01-22T07:43:27.040Z,13.90
2023-01-22T07:44:27.056Z,16.70
2023-01-22T07:45:27.019Z,13.40
2023-01-22T07:46:27.078Z,13.60
2023-01-22T07:47:27.027Z,23.00
2023-01-22T07:48:27.062Z,18.90
2023-01-22T07:49:26.973Z,18.00
2023-01-22T07:50:27.078Z,11.30
2023-01-22T07:51:26.961Z,13.10
2023-01-22T07:52:26.949Z,18.20
2023-01-22T07:53:27.105Z,13.60
2023-01-22T07:54:26.937Z,15.60
2023-01-22T07:55:26.928Z,11.40
2023-01-22T07:56:26.927Z,13.50
2023-01-22T07:57:26.907Z,13.00
2023-01-22T07:58:26.917Z,11.20
2023-01-22T07:59:26.910Z,10.20
2023-01-22T08:00:26.929Z,10.20
2023-01-22T08:01:26.921Z,9.20
2023-01-22T08:02:26.906Z,10.20
2023-01-22T08:03:26.862Z,12.00
2023-01-22T08:04:26.846Z,10.40
2023-01-22T08:05:26.818Z,10.30
2023-01-22T08:06:26.818Z,12.10
2023-01-22T08:07:27.839Z,12.00
2023-01-22T08:08:26.829Z,10.20
2023-01-22T08:09:32.679Z,11.30
2023-01-22T08:10:27.877Z,11.60
2023-01-22T08:11:26.756Z,10.40
2023-01-22T08:12:26.734Z,12.90
2023-01-22T08:13:26.726Z,22.80
2023-01-22T08:14:26.731Z,20.90
2023-01-22T08:15:26.726Z,18.40
2023-01-22T08:16:26.795Z,13.60
2023-01-22T08:17:26.728Z,12.40
2023-01-22T08:18:26.716Z,7.80
2023-01-22T08:19:26.692Z,10.20
2023-01-22T08:20:26.700Z,12.70
2023-01-22T08:21:26.691Z,11.20
2023-01-22T08:22:26.634Z,11.80
2023-01-22T08:23:26.620Z,9.20
2023-01-22T08:24:26.610Z,20.10
2023-01-22T08:25:26.602Z,11.80
2023-01-22T08:26:26.767Z,12.60
2023-01-22T08:27:26.618Z,16.80
2023-01-22T08:28:26.567Z,19.70
2023-01-22T08:29:26.578Z,16.10
2023-01-22T08:30:26.573Z,11.70
2023-01-22T08:31:28.559Z,13.40
2023-01-22T08:32:26.562Z,11.60
2023-01-22T08:33:26.554Z,14.50
2023-01-22T08:34:26.519Z,11.80
2023-01-22T08:35:26.634Z,9.50
2023-01-22T08:36:26.519Z,14.10
2023-01-22T08:37:26.483Z,18.50
2023-01-22T08:38:26.468Z,17.30
2023-01-22T08:39:26.452Z,15.00
2023-01-22T08:40:26.461Z,11.60
2023-01-22T08:41:26.441Z,12.50
2023-01-22T08:42:26.529Z,13.10
2023-01-22T08:43:26.468Z,9.00
2023-01-22T08:44:26.525Z,14.70
2023-01-22T08:45:26.416Z,11.90
2023-01-22T08:46:26.396Z,12.90
2023-01-22T08:47:26.365Z,10.00
2023-01-22T08:48:26.367Z,9.90
2023-01-22T08:49:26.387Z,10.20
2023-01-22T08:50:26.356Z,13.00
2023-01-22T08:51:26.423Z,10.80
2023-01-22T08:52:26.332Z,11.90
2023-01-22T08:53:26.419Z,10.40
2023-01-22T08:54:26.293Z,12.80
2023-01-22T08:55:26.273Z,9.90
2023-01-22T08:56:26.303Z,9.50
2023-01-22T08:57:26.311Z,11.90
2023-01-22T08:58:26.359Z,10.90
2023-01-22T08:59:26.231Z,14.50
2023-01-22T09:00:26.248Z,10.50
2023-01-22T09:01:26.469Z,8.40
2023-01-22T09:02:26.395Z,10.00
2023-01-22T09:03:26.189Z,9.00
2023-01-22T09:04:26.210Z,11.30
2023-01-22T09:05:26.171Z,18.00
2023-01-22T09:06:26.215Z,16.20
2023-01-22T09:07:26.216Z,11.50
2023-01-22T09:08:26.142Z,9.50
2023-01-22T09:09:26.167Z,10.10
2023-01-22T09:10:26.245Z,11.90
2023-01-22T09:11:26.336Z,9.50
2023-01-22T09:12:26.096Z,9.30
2023-01-22T09:13:26.085Z,6.30
2023-01-22T09:14:26.195Z,9.50
2023-01-22T09:15:26.116Z,7.60
2023-01-22T09:16:26.132Z,8.80
2023-01-22T09:17:26.045Z,13.90
2023-01-22T09:18:26.051Z,10.10
2023-01-22T09:19:26.071Z,10.20
2023-01-22T09:20:26.028Z,9.60
2023-01-22T09:21:26.020Z,10.60
2023-01-22T09:22:25.990Z,8.60
2023-01-22T09:23:26.000Z,7.30
2023-01-22T09:24:25.972Z,7.90
2023-01-22T09:25:26.057Z,9.40
2023-01-22T09:26:25.972Z,12.20
2023-01-22T09:27:25.937Z,7.20
2023-01-22T09:28:26.006Z,7.50
2023-01-22T09:29:25.947Z,9.40
2023-01-22T09:30:26.023Z,9.40
2023-01-22T09:31:25.938Z,11.80
2023-01-22T09:32:25.891Z,11.40
2023-01-22T09:33:25.963Z,8.80
2023-01-22T09:34:25.924Z,6.90
2023-01-22T09:35:25.861Z,10.00
2023-01-22T09:36:25.917Z,7.70
2023-01-22T09:37:25.848Z,7.90
2023-01-22T09:38:25.825Z,7.50
2023-01-22T09:39:25.856Z,8.80
2023-01-22T09:40:25.801Z,9.20
2023-01-22T09:41:25.798Z,9.80
2023-01-22T09:42:25.787Z,8.10
2023-01-22T09:43:25.773Z,7.80
2023-01-22T09:44:25.764Z,8.80
2023-01-22T09:45:25.796Z,9.80
2023-01-22T09:46:25.910Z,7.80
2023-01-22T09:47:25.722Z,8.80
2023-01-22T09:48:25.722Z,10.90
2023-01-22T09:49:25.714Z,9.60
2023-01-22T09:50:25.742Z,7.40
2023-01-22T09:51:25.835Z,9.70
2023-01-22T09:52:25.668Z,11.40
2023-01-22T09:53:25.668Z,10.70
2023-01-22T09:54:25.740Z,10.70
2023-01-22T09:55:25.729Z,9.40
2023-01-22T09:56:25.639Z,9.50
2023-01-22T09:57:31.525Z,11.10
2023-01-22T09:58:26.644Z,9.90
2023-01-22T09:59:25.611Z,19.00
2023-01-22T10:00:25.596Z,12.10
2023-01-22T10:01:25.682Z,8.50
2023-01-22T10:02:25.712Z,11.50
2023-01-22T10:03:25.663Z,10.30
2023-01-22T10:04:25.718Z,9.00
2023-01-22T10:05:25.526Z,9.60
2023-01-22T10:06:25.536Z,10.20
2023-01-22T10:07:25.523Z,10.40
2023-01-22T10:08:25.521Z,8.80
2023-01-22T10:09:25.526Z,10.20
2023-01-22T10:10:25.520Z,10.30
2023-01-22T10:11:25.474Z,8.80
2023-01-22T10:12:25.544Z,8.40
2023-01-22T10:13:25.625Z,12.30
2023-01-22T10:14:25.447Z,11.50
2023-01-22T10:15:25.457Z,11.60
2023-01-22T10:16:25.454Z,10.30
2023-01-22T10:17:25.463Z,11.20
2023-01-22T10:18:25.501Z,12.20
2023-01-22T10:19:25.372Z,12.10
2023-01-22T10:20:25.369Z,13.30
2023-01-22T10:21:25.581Z,11.90
2023-01-22T10:22:25.607Z,10.30
2023-01-22T10:23:25.330Z,9.80
2023-01-22T10:24:25.324Z,10.70
2023-01-22T10:25:25.358Z,8.90
2023-01-22T10:26:25.437Z,11.00
2023-01-22T10:27:25.314Z,13.40
2023-01-22T10:28:25.311Z,11.50
2023-01-22T10:29:25.333Z,13.60
2023-01-22T10:30:25.291Z,12.70
2023-01-22T10:31:25.585Z,9.90
2023-01-22T10:32:25.235Z,9.40
2023-01-22T10:33:25.233Z,10.30
2023-01-22T10:34:25.335Z,7.90
2023-01-22T10:35:25.245Z,10.50
2023-01-22T10:36:25.232Z,11.00
2023-01-22T10:37:25.187Z,9.50
2023-01-22T10:38:25.174Z,14.10
2023-01-22T10:39:25.259Z,11.50
2023-01-22T10:40:25.161Z,10.40
2023-01-22T10:41:25.155Z,8.90
2023-01-22T10:42:25.154Z,11.90
2023-01-22T10:43:25.152Z,12.60
2023-01-22T10:44:25.118Z,16.60
2023-01-22T10:45:25.282Z,8.90
2023-01-22T10:46:25.176Z,9.80
2023-01-22T10:47:25.091Z,8.70
2023-01-22T10:48:25.171Z,9.20
2023-01-22T10:49:25.070Z,9.20
2023-01-22T10:50:25.181Z,8.30
2023-01-22T10:51:25.204Z,7.80
2023-01-22T10:52:25.022Z,7.00
2023-01-22T10:53:25.011Z,7.20
2023-01-22T10:54:25.016Z,7.80
2023-01-22T10:55:24.998Z,8.90
2023-01-22T10:56:25.022Z,8.80
2023-01-22T10:57:25.074Z,8.00
2023-01-22T10:58:24.957Z,6.90
2023-01-22T10:59:24.961Z,7.20
2023-01-22T11:00:24.963Z,8.70
2023-01-22T11:01:24.970Z,6.90
2023-01-22T11:02:25.034Z,8.20
2023-01-22T11:03:25.001Z,9.50
2023-01-22T11:04:24.912Z,6.90
2023-01-22T11:05:24.908Z,8.60
2023-01-22T11:06:24.999Z,7.70
2023-01-22T11:07:24.884Z,7.50
2023-01-22T11:08:24.853Z,8.40
2023-01-22T11:09:24.850Z,8.90
2023-01-22T11:10:24.833Z,9.20
2023-01-22T11:11:24.850Z,8.00
2023-01-22T11:12:24.869Z,9.40
2023-01-22T11:13:24.803Z,7.20
2023-01-22T11:14:24.817Z,15.60
2023-01-22T11:15:24.934Z,18.40
2023-01-22T11:16:24.767Z,19.30
2023-01-22T11:17:24.779Z,25.30
2023-01-22T11:18:24.784Z,25.60
2023-01-22T11:19:36.639Z,16.40
2023-01-22T11:20:25.769Z,16.60
2023-01-22T11:21:24.727Z,12.70
2023-01-22T11:22:24.835Z,6.50
2023-01-22T11:23:24.902Z,12.00
2023-01-22T11:24:24.916Z,23.70
2023-01-22T11:25:24.668Z,13.50
2023-01-22T11:26:24.683Z,11.80
2023-01-22T11:27:24.653Z,12.20
2023-01-22T11:28:24.699Z,13.40
2023-01-22T11:29:24.652Z,10.60
2023-01-22T11:30:25.125Z,11.20
2023-01-22T11:31:24.945Z,10.10
2023-01-22T11:32:24.736Z,11.50
2023-01-22T11:33:24.847Z,6.70
2023-01-22T11:34:24.598Z,9.30
2023-01-22T11:35:24.586Z,6.80
2023-01-22T11:36:24.552Z,7.10
2023-01-22T11:37:24.552Z,4.80
2023-01-22T11:38:24.896Z,7.30
2023-01-22T11:39:24.596Z,4.80
2023-01-22T11:40:24.520Z,6.30
2023-01-22T11:41:24.785Z,5.80
2023-01-22T11:42:24.686Z,5.60
2023-01-22T11:43:24.565Z,5.80
2023-01-22T11:44:24.482Z,6.50
2023-01-22T11:45:24.472Z,5.60
2023-01-22T11:46:24.582Z,5.80
2023-01-22T11:47:24.449Z,5.10
2023-01-22T11:48:24.463Z,6.10
2023-01-22T11:49:24.442Z,6.00
2023-01-22T11:50:24.451Z,6.80
2023-01-22T11:51:24.689Z,5.70
2023-01-22T11:52:24.418Z,7.90
2023-01-22T11:53:24.379Z,8.80
2023-01-22T11:54:24.493Z,7.10
2023-01-22T11:55:24.375Z,7.20
2023-01-22T11:56:24.432Z,5.40
2023-01-22T11:57:24.347Z,6.70
2023-01-22T11:58:24.335Z,7.60
2023-01-22T11:59:24.420Z,9.20
2023-01-22T12:00:24.574Z,8.80
2023-01-22T12:01:24.325Z,10.70
2023-01-22T12:02:24.332Z,9.70
2023-01-22T12:03:24.288Z,9.50
2023-01-22T12:04:24.321Z,11.20
2023-01-22T12:05:24.256Z,11.40
2023-01-22T12:06:24.257Z,9.50
2023-01-22T12:07:24.223Z,12.30
2023-01-22T12:08:24.250Z,14.00
2023-01-22T12:09:24.214Z,11.50
2023-01-22T12:10:24.307Z,11.40
2023-01-22T12:11:24.212Z,9.50
2023-01-22T12:12:24.182Z,7.80
2023-01-22T12:13:24.187Z,4.70
2023-01-22T12:14:24.194Z,6.80
2023-01-22T12:15:24.146Z,5.40
2023-01-22T12:16:24.249Z,4.70
2023-01-22T12:17:24.169Z,6.70
2023-01-22T12:18:24.116Z,6.80
2023-01-22T12:19:24.101Z,5.30
2023-01-22T12:20:24.155Z,7.20
2023-01-22T12:21:24.141Z,5.20
2023-01-22T12:22:24.063Z,5.00
2023-01-22T12:23:24.156Z,5.10
2023-01-22T12:24:24.077Z,9.40
2023-01-22T12:25:24.100Z,6.60
2023-01-22T12:26:24.167Z,7.30
2023-01-22T12:27:24.009Z,12.20
2023-01-22T12:28:23.999Z,15.40
2023-01-22T12:29:24.008Z,8.90
2023-01-22T12:30:23.977Z,8.10
2023-01-22T12:31:24.149Z,10.60
2023-01-22T12:32:24.078Z,19.30
2023-01-22T12:33:23.962Z,10.00
2023-01-22T12:34:23.976Z,14.00
2023-01-22T12:35:23.953Z,13.50
2023-01-22T12:36:23.923Z,13.20
2023-01-22T12:37:23.937Z,12.10
2023-01-22T12:38:23.907Z,12.00
2023-01-22T12:39:23.913Z,10.40
2023-01-22T12:40:23.931Z,8.90
2023-01-22T12:41:23.905Z,11.20
2023-01-22T12:42:23.978Z,9.00
2023-01-22T12:43:23.918Z,14.60
2023-01-22T12:44:23.973Z,11.40
2023-01-22T12:45:23.831Z,13.50
2023-01-22T12:46:23.842Z,13.20
2023-01-22T12:47:23.821Z,11.20
2023-01-22T12:48:23.798Z,10.10
2023-01-22T12:49:23.832Z,9.70
2023-01-22T12:50:24.000Z,8.60
2023-01-22T12:51:23.928Z,6.40
2023-01-22T12:52:24.154Z,7.20
2023-01-22T12:53:23.933Z,8.10
2023-01-22T12:54:23.761Z,9.60
2023-01-22T12:55:23.756Z,8.60
2023-01-22T12:56:23.727Z,9.40
2023-01-22T12:57:23.699Z,7.60
2023-01-22T12:58:23.798Z,8.10
2023-01-22T12:59:23.713Z,7.90
2023-01-22T13:00:23.755Z,8.70
2023-01-22T13:01:23.752Z,11.50
2023-01-22T13:02:23.896Z,8.10
2023-01-22T13:03:31.040Z,7.70
2023-01-22T13:04:24.625Z,7.10
2023-01-22T13:05:23.610Z,7.10
2023-01-22T13:06:23.645Z,8.00
2023-01-22T13:07:23.636Z,7.80
2023-01-22T13:08:23.578Z,6.90
2023-01-22T13:09:23.566Z,7.00
2023-01-22T13:10:23.586Z,7.80